KDAB/DAB METAR and TAF weather

Enter ICAO airport designator
Station Type Date Time Source
KDAB METAR 2022/12/08 13:53 UTC NOAA

KDAB 081353Z 30005KT 10SM CLR 21/17 A3024 RMK AO2 SLP237 T02060167


Station Type Date Time Source
KDAB Decoded METAR 2022/12/08 13:53 UTC NOAA

DAYTONA BEACH INTERNATIONAL, FL, United States (KDAB) 29-10N 81-04W 9M
Dec 08, 2022 - 08:53 AM EST / 2022.12.08 1353 UTC
Wind: from the WNW (300 degrees) at 6 MPH (5 KT):0
Visibility: 10 mile(s):0
Sky conditions: clear
Temperature: 69.1 F (20.6 C)
Dew Point: 62.1 F (16.7 C)
Relative Humidity: 78%
Pressure (altimeter): 30.24 in. Hg (1024 hPa)
ob: KDAB 081353Z 30005KT 10SM CLR 21/17 A3024 RMK AO2 SLP237 T02060167
cycle: 14

Station Type Date Time Source
KDAB TAF 2022/12/08 12:48 UTC NOAA

TAF COR KDAB 081244Z 0812/0912 00000KT P6SM FEW002 FEW050
FM081500 36006KT P6SM FEW025
FM081800 03007KT P6SM SCT035
FM082300 VRB05KT P6SM SCT050
FM090800 VRB03KT 4SM BR FEW002
TEMPO 0910/0912 2SM BR SCT002

Example: see airport list